createdAt,value
2022-08-25T00:00:58.624Z,101392.50
2022-08-25T00:03:35.857Z,101390.34
2022-08-25T00:06:09.736Z,101388.19
2022-08-25T00:08:43.425Z,101385.25
2022-08-25T00:11:19.481Z,101392.25
2022-08-25T00:13:56.435Z,101391.94
2022-08-25T00:16:31.344Z,101386.97
2022-08-25T00:19:15.934Z,101382.00
2022-08-25T00:21:48.858Z,101385.13
2022-08-25T00:24:22.428Z,101383.25
2022-08-25T00:26:56.872Z,101385.09
2022-08-25T00:29:30.863Z,101386.03
2022-08-25T00:32:05.659Z,101387.91
2022-08-25T00:34:38.470Z,101387.28
2022-08-25T00:37:11.393Z,101386.06
2022-08-25T00:39:43.985Z,101385.91
2022-08-25T00:42:16.614Z,101384.66
2022-08-25T00:44:49.366Z,101387.00
2022-08-25T00:47:21.970Z,101390.09
2022-08-25T00:49:59.634Z,101389.78
2022-08-25T00:52:38.157Z,101391.94
2022-08-25T00:55:25.154Z,101388.53
2022-08-25T00:58:28.798Z,101396.28
2022-08-25T01:01:01.761Z,101388.97
2022-08-25T01:03:35.807Z,101392.38
2022-08-25T01:06:10.212Z,101399.38
2022-08-25T01:08:43.495Z,101394.06
2022-08-25T01:11:16.247Z,101394.31
2022-08-25T01:13:53.002Z,101388.56
2022-08-25T01:16:26.215Z,101397.09
2022-08-25T01:19:00.478Z,101393.34
2022-08-25T01:21:40.593Z,101392.72
2022-08-25T01:24:32.538Z,101390.38
2022-08-25T01:27:06.818Z,101380.91
2022-08-25T01:29:39.903Z,101384.94
2022-08-25T01:32:14.200Z,101391.75
2022-08-25T01:34:46.755Z,101393.00
2022-08-25T01:37:20.292Z,101393.00
2022-08-25T01:39:52.763Z,101391.81
2022-08-25T01:42:38.070Z,101392.41
2022-08-25T01:45:10.541Z,101392.41
2022-08-25T01:47:43.142Z,101386.69
2022-08-25T01:50:15.683Z,101396.47
2022-08-25T01:53:26.591Z,101400.56
2022-08-25T01:56:06.116Z,101400.28
2022-08-25T01:58:46.239Z,101394.69
2022-08-25T02:01:24.132Z,101395.31
2022-08-25T02:03:56.909Z,101382.59
2022-08-25T02:06:33.187Z,101393.78
2022-08-25T02:09:09.982Z,101389.88
2022-08-25T02:11:44.426Z,101393.16
2022-08-25T02:14:18.369Z,101393.91
2022-08-25T02:16:52.809Z,101392.97
2022-08-25T02:19:26.149Z,101392.84
2022-08-25T02:21:59.901Z,101388.50
2022-08-25T02:24:32.428Z,101380.59
2022-08-25T02:27:05.113Z,101384.16
2022-08-25T02:29:37.606Z,101394.88
2022-08-25T02:32:10.339Z,101398.44
2022-08-25T02:34:43.487Z,101386.50
2022-08-25T02:37:15.933Z,101384.34
2022-08-25T02:39:48.444Z,101381.09
2022-08-25T02:42:21.941Z,101381.38
2022-08-25T02:44:54.465Z,101385.72
2022-08-25T02:47:27.330Z,101379.69
2022-08-25T02:49:59.757Z,101384.78
2022-08-25T02:52:32.272Z,101384.78
2022-08-25T02:55:07.234Z,101380.16
2022-08-25T02:57:42.026Z,101374.06
2022-08-25T03:00:17.466Z,101366.78
2022-08-25T03:02:51.242Z,101373.59
2022-08-25T03:05:23.792Z,101373.75
2022-08-25T03:07:57.311Z,101371.56
2022-08-25T03:10:30.421Z,101370.16
2022-08-25T03:13:02.962Z,101371.41
2022-08-25T03:15:37.749Z,101362.34
2022-08-25T03:18:11.702Z,101373.25
2022-08-25T03:20:46.705Z,101365.13
2022-08-25T03:23:19.397Z,101361.38
2022-08-25T03:26:13.482Z,101359.22
2022-08-25T03:28:46.013Z,101358.56
2022-08-25T03:31:19.098Z,101361.97
2022-08-25T03:33:51.593Z,101351.72
2022-08-25T03:36:25.064Z,101352.66
2022-08-25T03:38:57.857Z,101353.59
2022-08-25T03:41:33.034Z,101346.91
2022-08-25T03:44:07.943Z,101345.94
2022-08-25T03:46:46.381Z,101348.56
2022-08-25T03:49:22.728Z,101347.00
2022-08-25T03:51:55.159Z,101345.44
2022-08-25T03:54:28.616Z,101338.31
2022-08-25T03:57:01.094Z,101346.38
2022-08-25T03:59:34.746Z,101339.22
2022-08-25T04:02:07.807Z,101333.66
2022-08-25T04:04:40.766Z,101330.09
2022-08-25T04:07:13.261Z,101329.00
2022-08-25T04:09:45.782Z,101325.88
2022-08-25T04:12:18.184Z,101321.69
2022-08-25T04:14:52.120Z,101324.59
2022-08-25T04:17:25.274Z,101318.72
2022-08-25T04:19:57.949Z,101327.06
2022-08-25T04:22:31.758Z,101333.44
2022-08-25T04:25:09.412Z,101336.53
2022-08-25T04:27:42.184Z,101329.59
2022-08-25T04:30:15.078Z,101341.06
2022-08-25T04:32:48.626Z,101328.22
2022-08-25T04:35:22.505Z,101329.31
2022-08-25T04:37:54.922Z,101329.63
2022-08-25T04:40:28.913Z,101324.97
2022-08-25T04:43:01.869Z,101319.06
2022-08-25T04:45:39.760Z,101309.47
2022-08-25T04:48:12.222Z,101309.03
2022-08-25T04:50:44.641Z,101305.09
2022-08-25T04:53:17.223Z,101306.69
2022-08-25T04:55:50.085Z,101309.34
2022-08-25T04:58:22.507Z,101312.41
2022-08-25T05:01:02.044Z,101309.81
2022-08-25T05:03:35.029Z,101317.13
2022-08-25T05:06:10.144Z,101306.47
2022-08-25T05:08:45.982Z,101311.75
2022-08-25T05:11:20.150Z,101319.38
2022-08-25T05:13:57.313Z,101311.16
2022-08-25T05:16:30.669Z,101316.44
2022-08-25T05:19:03.134Z,101327.31
2022-08-25T05:21:36.124Z,101332.78
2022-08-25T05:24:08.875Z,101338.25
2022-08-25T05:26:41.624Z,101341.66
2022-08-25T05:29:14.386Z,101337.16
2022-08-25T05:31:50.356Z,101343.66
2022-08-25T05:34:24.714Z,101347.69
2022-08-25T05:37:00.016Z,101352.47
2022-08-25T05:39:33.733Z,101350.88
2022-08-25T05:42:06.422Z,101344.28
2022-08-25T05:44:38.844Z,101341.72
2022-08-25T05:47:11.267Z,101351.59
2022-08-25T05:49:43.663Z,101359.44
2022-08-25T05:52:20.036Z,101354.16
2022-08-25T05:54:52.735Z,101351.53
2022-08-25T05:57:25.187Z,101360.09
2022-08-25T05:59:57.600Z,101359.94
2022-08-25T06:02:43.976Z,101359.78
2022-08-25T06:05:20.230Z,101364.41
2022-08-25T06:07:52.832Z,101361.88
2022-08-25T06:10:25.636Z,101354.69
2022-08-25T06:12:58.197Z,101357.78
2022-08-25T06:15:31.467Z,101353.19
2022-08-25T06:18:04.102Z,101359.81
2022-08-25T06:20:36.577Z,101366.44
2022-08-25T06:23:09.258Z,101365.09
2022-08-25T06:25:41.710Z,101365.06
2022-08-25T06:28:14.173Z,101357.56
2022-08-25T06:30:47.654Z,101353.38
2022-08-25T06:33:20.116Z,101361.00
2022-08-25T06:35:55.914Z,101367.81
2022-08-25T06:38:28.587Z,101367.78
2022-08-25T06:41:06.097Z,101367.66
2022-08-25T06:43:41.677Z,101364.69
2022-08-25T06:46:20.741Z,101358.69
2022-08-25T06:48:54.712Z,101371.09
2022-08-25T06:51:27.566Z,101369.69
2022-08-25T06:54:00.350Z,101364.91
2022-08-25T06:56:34.185Z,101368.25
2022-08-25T06:59:08.594Z,101367.00
2022-08-25T07:01:42.289Z,101364.16
2022-08-25T07:04:15.474Z,101361.56
2022-08-25T07:06:48.087Z,101356.19
2022-08-25T07:09:20.821Z,101365.06
2022-08-25T07:11:53.902Z,101357.81
2022-08-25T07:14:26.461Z,101358.47
2022-08-25T07:16:58.967Z,101354.56
2022-08-25T07:19:31.885Z,101349.31
2022-08-25T07:22:04.443Z,101358.81
2022-08-25T07:24:36.871Z,101360.50
2022-08-25T07:27:09.361Z,101351.78
2022-08-25T07:29:42.614Z,101353.97
2022-08-25T07:32:15.267Z,101351.88
2022-08-25T07:35:06.288Z,101356.72
2022-08-25T07:37:48.948Z,101359.72
2022-08-25T07:40:42.677Z,101346.53
2022-08-25T07:43:15.629Z,101347.34
2022-08-25T07:45:49.608Z,101348.09
2022-08-25T07:48:22.144Z,101351.00
2022-08-25T07:50:55.561Z,101342.38
2022-08-25T07:53:30.276Z,101339.25
2022-08-25T07:58:41.554Z,101338.69
2022-08-25T08:01:24.656Z,101333.84
2022-08-25T08:04:00.426Z,101338.31
2022-08-25T08:06:35.954Z,101331.28
2022-08-25T08:09:08.482Z,101328.84
2022-08-25T08:11:53.961Z,101337.22
2022-08-25T08:14:26.989Z,101328.78
2022-08-25T08:16:59.627Z,101330.16
2022-08-25T08:19:32.103Z,101328.28
2022-08-25T08:22:06.106Z,101327.19
2022-08-25T08:24:44.624Z,101327.28
2022-08-25T08:27:26.814Z,101322.44
2022-08-25T08:29:59.438Z,101326.72
2022-08-25T08:32:52.994Z,101329.91
2022-08-25T08:35:24.650Z,101326.75
2022-08-25T08:37:57.094Z,101320.84
2022-08-25T08:40:33.296Z,101327.78
2022-08-25T08:43:18.946Z,101310.66
2022-08-25T08:45:53.119Z,101316.91
2022-08-25T08:48:44.385Z,101310.59
2022-08-25T08:51:24.615Z,101313.22
2022-08-25T08:54:15.580Z,101315.94
2022-08-25T08:56:56.695Z,101325.28
2022-08-25T08:59:49.117Z,101315.22
2022-08-25T09:02:52.022Z,101314.25
2022-08-25T09:05:28.853Z,101310.16
2022-08-25T09:08:07.803Z,101309.97
2022-08-25T09:10:54.306Z,101312.88
2022-08-25T09:13:29.703Z,101321.97
2022-08-25T09:16:55.353Z,101320.28
2022-08-25T09:20:19.073Z,101312.19
2022-08-25T09:23:30.541Z,101323.81
2022-08-25T09:26:23.961Z,101309.38
2022-08-25T09:29:07.319Z,101309.84
2022-08-25T09:31:49.977Z,101306.66
2022-08-25T09:34:28.373Z,101309.81
2022-08-25T09:37:01.213Z,101300.16
2022-08-25T09:39:33.863Z,101299.50
2022-08-25T09:42:06.562Z,101314.56
2022-08-25T09:44:43.457Z,101315.41
2022-08-25T09:47:23.751Z,101300.31
2022-08-25T09:50:00.944Z,101302.47
2022-08-25T09:52:33.420Z,101304.25
2022-08-25T09:55:05.817Z,101292.84
2022-08-25T09:57:47.442Z,101291.56
2022-08-25T10:00:24.871Z,101288.72
2022-08-25T10:03:24.788Z,101285.13
2022-08-25T10:05:57.673Z,101276.44
2022-08-25T10:09:02.054Z,101280.22
2022-08-25T10:11:48.236Z,101276.34
2022-08-25T10:14:44.520Z,101267.09
2022-08-25T10:17:27.599Z,101263.81
2022-08-25T10:20:33.074Z,101266.81
2022-08-25T10:23:14.123Z,101259.59
2022-08-25T10:25:59.341Z,101258.94
2022-08-25T10:28:54.524Z,101248.59
2022-08-25T10:31:36.459Z,101258.66
2022-08-25T10:34:32.163Z,101244.34
2022-08-25T10:37:40.109Z,101238.41
2022-08-25T10:40:24.902Z,101239.38
2022-08-25T10:43:11.015Z,101226.91
2022-08-25T10:45:57.565Z,101233.22
2022-08-25T10:48:51.130Z,101230.72
2022-08-25T10:51:57.082Z,101219.91
2022-08-25T10:54:57.348Z,101221.94
2022-08-25T10:57:52.583Z,101219.63
2022-08-25T11:00:35.202Z,101219.66
2022-08-25T11:03:57.359Z,101222.09
2022-08-25T11:06:42.505Z,101214.63
2022-08-25T11:09:21.418Z,101208.63
2022-08-25T11:12:02.873Z,101217.63
2022-08-25T11:14:42.958Z,101203.84
2022-08-25T11:17:39.900Z,101199.59
2022-08-25T11:20:26.750Z,101205.88
2022-08-25T11:23:22.161Z,101191.16
2022-08-25T11:26:07.513Z,101185.06
2022-08-25T11:29:04.005Z,101191.41
2022-08-25T11:31:44.445Z,101180.00
2022-08-25T11:34:21.362Z,101175.28
2022-08-25T11:37:01.234Z,101174.38
2022-08-25T11:40:11.675Z,101168.97
2022-08-25T11:43:11.040Z,101171.97
2022-08-25T11:45:56.951Z,101174.91
2022-08-25T11:48:54.960Z,101182.75
2022-08-25T11:51:40.529Z,101161.78
2022-08-25T11:54:21.032Z,101169.19
2022-08-25T11:57:16.193Z,101168.63
2022-08-25T11:59:51.701Z,101162.41
2022-08-25T12:02:47.502Z,101165.22
2022-08-25T12:05:21.436Z,101157.16
2022-08-25T12:08:12.314Z,101164.63
2022-08-25T12:10:55.510Z,101167.38
2022-08-25T12:13:48.170Z,101168.69
2022-08-25T12:16:35.824Z,101162.53
2022-08-25T12:19:26.890Z,101155.91
2022-08-25T12:22:03.487Z,101160.03
2022-08-25T12:24:47.322Z,101154.84
2022-08-25T12:27:36.449Z,101155.09
2022-08-25T12:30:23.987Z,101154.03
2022-08-25T12:33:10.820Z,101154.31
2022-08-25T12:35:58.102Z,101152.00
2022-08-25T12:38:34.773Z,101153.19
2022-08-25T12:41:10.839Z,101149.59
2022-08-25T12:43:44.870Z,101145.63
2022-08-25T12:46:23.746Z,101145.13
2022-08-25T12:48:59.196Z,101139.22
2022-08-25T12:51:48.775Z,101138.50
2022-08-25T12:54:39.138Z,101129.56
2022-08-25T12:57:25.012Z,101141.84
2022-08-25T13:00:05.655Z,101129.69
2022-08-25T13:02:51.564Z,101131.53
2022-08-25T13:05:43.689Z,101123.34
2022-08-25T13:08:36.975Z,101127.69
2022-08-25T13:11:13.767Z,101125.69
2022-08-25T13:14:07.881Z,101130.13
2022-08-25T13:16:51.619Z,101123.63
2022-08-25T13:19:25.506Z,101122.00
2022-08-25T13:21:59.294Z,101112.97
2022-08-25T13:24:40.766Z,101112.88
2022-08-25T13:27:22.742Z,101099.63
2022-08-25T13:29:57.989Z,101092.28
2022-08-25T13:32:34.436Z,101100.50
2022-08-25T13:35:14.558Z,101099.81
2022-08-25T13:37:47.186Z,101101.47
2022-08-25T13:40:19.790Z,101092.88
2022-08-25T13:42:58.146Z,101094.56
2022-08-25T13:45:31.914Z,101086.03
2022-08-25T13:48:04.666Z,101088.06
2022-08-25T13:50:39.391Z,101095.13
2022-08-25T13:53:25.539Z,101083.16
2022-08-25T13:55:59.515Z,101094.81
2022-08-25T13:58:39.366Z,101088.03
2022-08-25T14:01:47.623Z,101087.84
2022-08-25T14:04:24.279Z,101082.31
2022-08-25T14:07:08.355Z,101083.44
2022-08-25T14:09:45.859Z,101081.34
2022-08-25T14:12:33.039Z,101078.13
2022-08-25T14:15:09.942Z,101082.72
2022-08-25T14:17:43.905Z,101081.31
2022-08-25T14:20:27.215Z,101069.50
2022-08-25T14:23:05.483Z,101074.13
2022-08-25T14:25:42.538Z,101070.78
2022-08-25T14:28:18.886Z,101058.69
2022-08-25T14:30:56.602Z,101063.34
2022-08-25T14:33:31.512Z,101063.53
2022-08-25T14:36:04.930Z,101062.69
2022-08-25T14:38:39.002Z,101054.19
2022-08-25T14:41:13.713Z,101053.28
2022-08-25T14:43:48.045Z,101050.13
2022-08-25T14:46:21.991Z,101056.94
2022-08-25T14:48:57.893Z,101055.88
2022-08-25T14:51:32.529Z,101056.91
2022-08-25T14:54:06.454Z,101044.16
2022-08-25T14:56:39.168Z,101043.41
2022-08-25T14:59:15.867Z,101048.31
2022-08-25T15:01:50.152Z,101049.84
2022-08-25T15:04:26.537Z,101048.88
2022-08-25T15:07:00.093Z,101040.31
2022-08-25T15:09:33.592Z,101038.00
2022-08-25T15:12:06.250Z,101042.28
2022-08-25T15:14:40.415Z,101033.47
2022-08-25T15:17:14.042Z,101036.94
2022-08-25T15:19:47.195Z,101035.00
2022-08-25T15:22:20.298Z,101029.88
2022-08-25T15:24:52.781Z,101028.66
2022-08-25T15:27:25.215Z,101026.59
2022-08-25T15:30:04.093Z,101014.16
2022-08-25T15:32:36.571Z,101021.28
2022-08-25T15:35:09.220Z,101016.63
2022-08-25T15:37:42.203Z,101024.50
2022-08-25T15:40:14.903Z,101020.31
2022-08-25T15:42:49.065Z,101024.47
2022-08-25T15:45:21.471Z,101025.81
2022-08-25T15:47:53.911Z,101025.63
2022-08-25T15:50:26.866Z,101019.19
2022-08-25T15:52:59.269Z,101014.81
2022-08-25T15:55:31.703Z,101013.81
2022-08-25T15:58:05.997Z,101012.50
2022-08-25T16:00:41.489Z,101011.69
2022-08-25T16:03:14.326Z,101009.69
2022-08-25T16:05:48.236Z,101017.56
2022-08-25T16:08:21.175Z,101015.31
2022-08-25T16:10:53.570Z,101011.53
2022-08-25T16:13:25.920Z,101008.81
2022-08-25T16:15:59.637Z,101003.47
2022-08-25T16:18:32.100Z,101008.78
2022-08-25T16:21:12.682Z,101014.78
2022-08-25T16:23:46.020Z,101002.47
2022-08-25T16:26:18.638Z,101003.66
2022-08-25T16:28:51.061Z,100998.28
2022-08-25T16:31:24.026Z,100997.97
2022-08-25T16:33:58.324Z,101002.41
2022-08-25T16:36:31.031Z,101005.38
2022-08-25T16:39:03.410Z,100999.78
2022-08-25T16:41:42.345Z,101003.88
2022-08-25T16:44:15.184Z,101008.47
2022-08-25T16:46:48.178Z,101003.69
2022-08-25T16:49:20.912Z,101007.31
2022-08-25T16:51:58.015Z,101005.59
2022-08-25T16:54:49.124Z,101003.13
2022-08-25T16:57:21.451Z,101001.06
2022-08-25T16:59:53.827Z,101000.84
2022-08-25T17:02:26.287Z,100997.59
2022-08-25T17:04:59.094Z,100991.31
2022-08-25T17:07:32.515Z,100992.78
2022-08-25T17:10:05.743Z,100992.00
2022-08-25T17:12:39.488Z,100991.72
2022-08-25T17:15:12.857Z,100990.50
2022-08-25T17:17:45.513Z,100988.94
2022-08-25T17:20:17.974Z,100992.19
2022-08-25T17:22:50.834Z,100988.25
2022-08-25T17:25:23.152Z,100983.56
2022-08-25T17:27:59.898Z,100984.50
2022-08-25T17:30:34.001Z,100987.44
2022-08-25T17:33:06.361Z,100986.75
2022-08-25T17:35:40.240Z,100979.25
2022-08-25T17:38:13.199Z,100979.91
2022-08-25T17:40:46.228Z,100977.94
2022-08-25T17:43:18.689Z,100978.63
2022-08-25T17:45:52.029Z,100978.91
2022-08-25T17:48:26.192Z,100974.47
2022-08-25T17:51:00.067Z,100977.88
2022-08-25T17:53:33.065Z,100983.88
2022-08-25T17:56:10.031Z,100983.06
2022-08-25T17:58:42.506Z,100983.78
2022-08-25T18:01:19.867Z,100980.31
2022-08-25T18:03:55.049Z,100988.91
2022-08-25T18:06:32.180Z,100989.53
2022-08-25T18:09:06.272Z,100986.50
2022-08-25T18:11:38.630Z,100993.97
2022-08-25T18:14:11.619Z,100986.50
2022-08-25T18:16:44.675Z,100995.13
2022-08-25T18:19:17.148Z,100993.50
2022-08-25T18:21:49.857Z,100994.16
2022-08-25T18:24:25.914Z,100995.31
2022-08-25T18:27:00.301Z,100991.84
2022-08-25T18:29:32.702Z,100997.03
2022-08-25T18:32:05.079Z,100998.69
2022-08-25T18:34:38.972Z,101005.94
2022-08-25T18:37:31.269Z,100999.56
2022-08-25T18:40:22.670Z,100996.53
2022-08-25T18:42:57.526Z,101005.59
2022-08-25T18:45:31.902Z,101000.22
2022-08-25T18:48:04.915Z,101008.19
2022-08-25T18:50:39.854Z,101022.78
2022-08-25T18:53:12.905Z,101020.94
2022-08-25T18:55:45.392Z,101023.53
2022-08-25T18:58:19.284Z,101026.09
2022-08-25T19:00:52.414Z,101029.38
2022-08-25T19:03:25.312Z,101035.53
2022-08-25T19:05:57.913Z,101042.47
2022-08-25T19:08:30.308Z,101038.88
2022-08-25T19:11:02.655Z,101045.03
2022-08-25T19:13:35.141Z,101046.31
2022-08-25T19:16:11.784Z,101048.38
2022-08-25T19:18:44.460Z,101051.72
2022-08-25T19:21:20.534Z,101071.19
2022-08-25T19:23:55.316Z,101054.31
2022-08-25T19:26:27.790Z,101059.94
2022-08-25T19:29:00.417Z,101066.59
2022-08-25T19:31:33.015Z,101072.50
2022-08-25T19:34:06.674Z,101070.72
2022-08-25T19:36:39.113Z,101069.44
2022-08-25T19:39:12.576Z,101077.63
2022-08-25T19:41:45.318Z,101078.94
2022-08-25T19:44:17.970Z,101084.28
2022-08-25T19:46:51.355Z,101075.56
2022-08-25T19:49:26.291Z,101084.50
2022-08-25T19:51:59.046Z,101084.00
2022-08-25T19:54:36.329Z,101096.78
2022-08-25T19:57:10.528Z,101103.19
2022-08-25T19:59:47.401Z,101111.13
2022-08-25T20:02:24.998Z,101112.66
2022-08-25T20:04:59.405Z,101106.50
2022-08-25T20:07:32.381Z,101111.66
2022-08-25T20:10:06.033Z,101111.59
2022-08-25T20:12:38.907Z,101114.38
2022-08-25T20:15:13.428Z,101116.31
2022-08-25T20:17:49.236Z,101119.09
2022-08-25T20:20:22.337Z,101122.09
2022-08-25T20:23:14.912Z,101136.91
2022-08-25T20:25:47.263Z,101135.06
2022-08-25T20:28:23.778Z,101130.66
2022-08-25T20:30:56.349Z,101130.81
2022-08-25T20:33:28.723Z,101147.41
2022-08-25T20:36:02.129Z,101151.16
2022-08-25T20:38:35.126Z,101153.13
2022-08-25T20:41:13.655Z,101152.03
2022-08-25T20:43:45.989Z,101153.03
2022-08-25T20:46:19.104Z,101168.03
2022-08-25T20:48:51.565Z,101161.31
2022-08-25T20:51:25.431Z,101167.38
2022-08-25T20:53:57.798Z,101167.56
2022-08-25T20:56:32.064Z,101169.34
2022-08-25T20:59:04.737Z,101169.78
2022-08-25T21:01:42.881Z,101171.47
2022-08-25T21:04:16.704Z,101172.16
2022-08-25T21:06:51.181Z,101172.59
2022-08-25T21:09:24.509Z,101165.66
2022-08-25T21:11:58.180Z,101179.59
2022-08-25T21:14:30.568Z,101175.25
2022-08-25T21:17:03.033Z,101178.50
2022-08-25T21:19:36.272Z,101172.31
2022-08-25T21:22:09.475Z,101171.88
2022-08-25T21:24:43.272Z,101182.00
2022-08-25T21:27:17.055Z,101193.84
2022-08-25T21:29:54.515Z,101196.03
2022-08-25T21:32:27.749Z,101196.44
2022-08-25T21:35:00.107Z,101185.34
2022-08-25T21:37:32.846Z,101185.84
2022-08-25T21:40:07.029Z,101191.22
2022-08-25T21:42:41.184Z,101194.56
2022-08-25T21:45:14.043Z,101200.06
2022-08-25T21:47:46.644Z,101199.44
2022-08-25T21:50:19.047Z,101207.72
2022-08-25T21:52:54.861Z,101207.81
2022-08-25T21:55:27.454Z,101213.34
2022-08-25T21:57:59.857Z,101213.84
2022-08-25T22:00:33.897Z,101214.13
2022-08-25T22:03:06.360Z,101209.09
2022-08-25T22:05:40.566Z,101214.69
2022-08-25T22:08:13.003Z,101219.03
2022-08-25T22:10:45.405Z,101213.81
2022-08-25T22:13:18.237Z,101212.94
2022-08-25T22:15:51.880Z,101211.78
2022-08-25T22:18:25.041Z,101212.00
2022-08-25T22:21:00.337Z,101214.97
2022-08-25T22:23:44.255Z,101223.09
2022-08-25T22:26:21.995Z,101223.59
2022-08-25T22:28:55.012Z,101230.34
2022-08-25T22:31:27.899Z,101226.25
2022-08-25T22:34:00.990Z,101235.34
2022-08-25T22:36:36.244Z,101225.09
2022-08-25T22:39:08.876Z,101226.06
2022-08-25T22:41:41.706Z,101225.47
2022-08-25T22:44:15.161Z,101219.88
2022-08-25T22:46:47.565Z,101228.25
2022-08-25T22:49:19.984Z,101221.41
2022-08-25T22:51:53.765Z,101230.47
2022-08-25T22:54:27.733Z,101228.44
2022-08-25T22:57:04.592Z,101231.44
2022-08-25T22:59:39.549Z,101228.78
2022-08-25T23:02:12.337Z,101228.78
2022-08-25T23:04:44.766Z,101226.16
2022-08-25T23:07:17.757Z,101231.19
2022-08-25T23:09:50.317Z,101238.31
2022-08-25T23:12:23.572Z,101229.63
2022-08-25T23:14:55.988Z,101234.94
2022-08-25T23:17:29.362Z,101241.78
2022-08-25T23:20:22.147Z,101244.28
2022-08-25T23:22:55.420Z,101243.31
2022-08-25T23:25:29.145Z,101240.53
2022-08-25T23:28:02.648Z,101240.22
2022-08-25T23:30:35.136Z,101244.59
2022-08-25T23:33:15.603Z,101242.41
2022-08-25T23:36:01.085Z,101246.06
2022-08-25T23:38:33.913Z,101241.44
2022-08-25T23:41:09.251Z,101245.75
2022-08-25T23:43:42.232Z,101229.09
2022-08-25T23:46:15.785Z,101142.28
2022-08-25T23:48:48.785Z,101149.31
2022-08-25T23:51:33.452Z,101136.56
2022-08-25T23:54:09.559Z,101144.66
2022-08-25T23:56:52.038Z,101153.56
2022-08-25T23:59:25.660Z,101153.06
